OIIIOIKK

Guest
Details From OIII - Teheran Mehrabad Intl
To OIKK - Kerman
Flight Number -
Tags Generated
Created
Modified
Stats Distance 434 nm / 804 km
Max Altitude 0 ft / 0 m
Waypoints 3
Social Downloads 7
Likes 0
Share VATSIM

Download

Looking for another format? Having issues loading an existing format? Contact us
Advertisement - Login to hide

Notes

Generated

Route

OIII KER OIKK

ID Type Via Altitude Latitude Longitude Leg Dist Tot Dist Heading (true) Name
O OIII APT - 0 ft / 0 m 35.69663˚ 51.29216˚ - 0 nm - -
KER NDB - 0 ft / 0 m 30.26567˚ 56.96072˚ 433 nm 433 nm 137° / 140° KERMAN NDB
O OIKK APT - 0 ft / 0 m 30.25735˚ 56.95072˚ 0 nm 434 nm 226° / 226° -

Altitude Profile

Advertisement - Login to hide

Weather


0- 5 10 15 20 25 30 35+ Temperature / ° C

Clouds and Precipitation
Forecast for 2017-12-12 06:00 UTC. Updated an hour ago

Ground ~20,000 ft ~40,000 ft Winds

OIII

Details ICAO OIII (THR)
Name Teheran Mehrabad Intl
Region Iran
Timezone Asia/Tehran (UTC+3.5)
Stats Elevation 3,962 ft / 1,208 m (AMSL)
Location 35.692631° 51.317409°
Runways 3
Magnetic Variation 4.729° E

METAR

OIII 120600Z 24006KT CAVOK 06/M06 Q1026 A3030 NOSIG

Decode

TAF

TAF OIII 120510Z 1206/1312 11004MPS 8000 NSC BECMG 1302/1304 3000 HZ BECMG 1304/0306 5000 BECMG 1307/1309 8000

Decode

Departure Runways

ID Width Length Bearing (true) Bearing (mag) Surface Threshold Offset Overrun Length
09 131 ft / 40 m 1,553 ft / 473 m 88.25° 83.52° Concrete 0 ft / 0 m 160 ft / 49 m
11L 148 ft / 45 m 13,077 ft / 3,986 m 109.70° 104.97° Asphalt 0 ft / 0 m 1,000 ft / 305 m
11R 197 ft / 60 m 13,227 ft / 4,032 m 109.74° 105.01° Asphalt 3,075 ft / 937 m 1,000 ft / 305 m
27 131 ft / 40 m 1,553 ft / 473 m 268.25° 263.52° Concrete 0 ft / 0 m 90 ft / 27 m
29L 197 ft / 60 m 13,227 ft / 4,032 m 289.77° 285.04° Asphalt 0 ft / 0 m 280 ft / 85 m
29R 148 ft / 45 m 13,077 ft / 3,986 m 289.72° 284.99° Asphalt 0 ft / 0 m 400 ft / 122 m

OIKK

Details ICAO OIKK (KER)
Name KERMAN
Region Iran
Timezone Asia/Tehran (UTC+3.5)
Stats Elevation 5,741 ft / 1,750 m (AMSL)
Location 30.268055° 56.955332°
Runways 2
Magnetic Variation 2.914° E

METAR

OIKK 120550Z 19004KT CAVOK 07/M25 Q1026 A3030

Decode

TAF

TAF OIKK 120510Z 1206/1312 12004MPS 8000 NSC

Decode

Destination Runways

ID Width Length Bearing (true) Bearing (mag) Surface Threshold Offset Overrun Length
05 148 ft / 45 m 6,658 ft / 2,029 m 53.18° 50.27° Asphalt 0 ft / 0 m 0 ft / 0 m
16 148 ft / 45 m 12,653 ft / 3,857 m 158.43° 155.52° Asphalt 0 ft / 0 m 344 ft / 105 m
23 148 ft / 45 m 6,658 ft / 2,029 m 233.19° 230.28° Asphalt 0 ft / 0 m 0 ft / 0 m
34 148 ft / 45 m 12,653 ft / 3,857 m 338.44° 335.53° Asphalt 0 ft / 0 m 488 ft / 149 m

Popular Alternatives